Time;durP1;ratioP1;P1;durP2;ratioP2;P2;SDS_P1;SDS_P2;PMS_P1;PMS_P2;Temp;Humidity;BMP_temperature;BMP_pressure;BME280_temperature;BME280_humidity;BME280_pressure;Samples;Min_cycle;Max_cycle;Signal;HPM_P1;HPM_P2
2023/02/19 00:01:19;;;;;;;41.45;18.00;;;;;;;-145.18;100.00;60484.78;5074931;28;20036;-68
2023/02/19 00:03:56;;;;;;;41.37;18.43;;;;;;;-145.18;100.00;60484.78;5070268;28;20078;-68
2023/02/19 00:06:23;;;;;;;47.83;18.57;;;;;;;-145.18;100.00;60484.78;5071514;28;20036;-69
2023/02/19 00:08:49;;;;;;;43.00;18.33;;;;;;;-145.18;100.00;60484.78;5072558;28;20028;-68
2023/02/19 00:11:17;;;;;;;45.53;19.63;;;;;;;-145.18;100.00;60484.78;5074537;28;20397;-68
2023/02/19 00:13:45;;;;;;;48.03;19.33;;;;;;;-145.18;100.00;60484.78;5071517;28;20035;-68
2023/02/19 00:16:20;;;;;;;49.77;21.03;;;;;;;-145.18;100.00;60484.78;5071591;28;20024;-68
2023/02/19 00:18:46;;;;;;;48.97;20.37;;;;;;;-145.18;100.00;60484.78;5074249;28;20425;-67
2023/02/19 00:21:12;;;;;;;52.77;19.63;;;;;;;-145.18;100.00;60484.78;5072828;28;20021;-67
2023/02/19 00:23:38;;;;;;;42.37;17.47;;;;;;;-145.18;100.00;60484.78;5069729;28;20028;-67
2023/02/19 00:26:06;;;;;;;45.10;18.40;;;;;;;-145.18;100.00;60484.78;5067728;28;20073;-67
2023/02/19 00:28:32;;;;;;;44.43;18.33;;;;;;;-145.18;100.00;60484.78;5068071;28;20074;-68
2023/02/19 00:31:11;;;;;;;39.83;17.07;;;;;;;-145.18;100.00;60484.78;5073029;28;20028;-67
2023/02/19 00:33:36;;;;;;;41.77;16.13;;;;;;;-145.18;100.00;60484.78;5067951;28;20017;-67
2023/02/19 00:36:04;;;;;;;41.47;17.53;;;;;;;-145.18;100.00;60484.78;5073020;28;20031;-67
2023/02/19 00:38:30;;;;;;;42.83;17.73;;;;;;;-145.18;100.00;60484.78;5073279;28;20033;-67
2023/02/19 00:40:59;;;;;;;42.23;18.47;;;;;;;-145.18;100.00;60484.78;5072806;28;20043;-68
2023/02/19 00:43:25;;;;;;;44.87;19.10;;;;;;;-145.18;100.00;60484.78;5072080;28;20036;-67
2023/02/19 00:45:50;;;;;;;44.47;18.03;;;;;;;-145.18;100.00;60484.78;5072019;28;20396;-67
2023/02/19 00:48:16;;;;;;;40.50;16.00;;;;;;;-145.18;100.00;60484.78;5073236;28;20024;-68
2023/02/19 00:50:41;;;;;;;38.97;16.17;;;;;;;-145.18;100.00;60484.78;5074048;28;20101;-68
2023/02/19 00:53:07;;;;;;;36.27;15.00;;;;;;;-145.18;100.00;60484.78;5072865;28;20033;-68
2023/02/19 00:55:32;;;;;;;42.33;17.80;;;;;;;-145.18;100.00;60484.78;5071680;28;20115;-68
2023/02/19 00:57:57;;;;;;;28.23;13.13;;;;;;;-145.18;100.00;60484.78;5073296;28;20047;-68
2023/02/19 01:00:23;;;;;;;36.03;15.53;;;;;;;-145.18;100.00;60484.78;5072816;28;20127;-67
2023/02/19 01:02:48;;;;;;;35.73;15.43;;;;;;;-145.18;100.00;60484.78;5074031;28;20371;-68
2023/02/19 01:05:14;;;;;;;35.07;14.40;;;;;;;-145.18;100.00;60484.78;5073186;28;20032;-68
2023/02/19 01:07:39;;;;;;;29.13;11.70;;;;;;;-145.18;100.00;60484.78;5073865;28;20039;-68
2023/02/19 01:10:05;;;;;;;33.80;15.07;;;;;;;-145.18;100.00;60484.78;5072564;28;20021;-67
2023/02/19 01:12:30;;;;;;;35.93;15.53;;;;;;;-145.18;100.00;60484.78;5072500;28;20028;-68
2023/02/19 01:14:57;;;;;;;36.57;13.17;;;;;;;-145.18;100.00;60484.78;5073101;28;20024;-67
2023/02/19 01:17:22;;;;;;;31.80;13.90;;;;;;;-145.18;100.00;60484.78;5072554;28;20036;-67
2023/02/19 01:19:47;;;;;;;35.97;14.80;;;;;;;-145.18;100.00;60484.78;5073323;28;20043;-67
2023/02/19 01:22:13;;;;;;;26.63;11.13;;;;;;;-145.18;100.00;60484.78;5070194;28;20033;-67
2023/02/19 01:24:38;;;;;;;26.00;11.73;;;;;;;-145.18;100.00;60484.78;5073380;28;20094;-68
2023/02/19 01:27:04;;;;;;;32.53;13.10;;;;;;;-145.18;100.00;60484.78;5065673;28;20048;-67
2023/02/19 01:29:29;;;;;;;32.73;14.73;;;;;;;-145.18;100.00;60484.78;5070247;28;20078;-67
2023/02/19 01:31:55;;;;;;;30.37;14.23;;;;;;;-145.18;100.00;60484.78;5071714;28;20055;-68
2023/02/19 01:34:20;;;;;;;28.23;12.43;;;;;;;-145.18;100.00;60484.78;5073204;28;20029;-68
2023/02/19 01:36:45;;;;;;;24.90;10.50;;;;;;;-145.18;100.00;60484.78;5071592;28;20023;-68
2023/02/19 01:39:11;;;;;;;26.30;12.20;;;;;;;-145.18;100.00;60484.78;5072786;28;20435;-68
2023/02/19 01:41:38;;;;;;;23.57;9.90;;;;;;;-145.18;100.00;60484.78;5071916;28;20024;-67
2023/02/19 01:44:10;;;;;;;31.13;13.20;;;;;;;-145.18;100.00;60484.78;5072819;28;20551;-68
2023/02/19 01:46:40;;;;;;;27.05;12.23;;;;;;;-145.18;100.00;60484.78;5072971;28;20028;-68
2023/02/19 01:49:22;;;;;;;28.33;12.27;;;;;;;-145.18;100.00;60484.78;5072648;28;20041;-67
2023/02/19 01:51:55;;;;;;;37.60;14.68;;;;;;;-145.18;100.00;60484.78;5073117;28;20028;-68
2023/02/19 01:54:25;;;;;;;31.70;13.23;;;;;;;-145.18;100.00;60484.78;5072829;28;20029;-68
2023/02/19 01:56:52;;;;;;;29.17;11.90;;;;;;;-145.18;100.00;60484.78;5071644;28;20032;-68
2023/02/19 01:59:18;;;;;;;34.40;13.60;;;;;;;-145.18;100.00;60484.78;5073069;28;20700;-68
2023/02/19 02:01:43;;;;;;;34.47;13.80;;;;;;;-145.18;100.00;60484.78;5103144;22;20055;-70
2023/02/19 02:04:12;;;;;;;31.77;12.97;;;;;;;-145.18;100.00;60484.78;5066966;28;20054;-70
2023/02/19 02:06:57;;;;;;;30.20;10.93;;;;;;;-145.18;100.00;60484.78;5073191;28;20467;-70
2023/02/19 02:12:11;;;;;;;31.97;12.33;;;;;;;-145.18;100.00;60484.78;5060396;28;20432;-71
2023/02/19 02:14:40;;;;;;;33.70;12.63;;;;;;;-145.18;100.00;60484.78;5072513;28;20025;-70
2023/02/19 02:17:19;;;;;;;31.67;13.83;;;;;;;-145.18;100.00;60484.78;5070379;28;20031;-70
2023/02/19 02:19:48;;;;;;;37.37;14.53;;;;;;;-145.18;100.00;60484.78;5062573;28;20031;-70
2023/02/19 02:22:35;;;;;;;35.23;15.13;;;;;;;-145.18;100.00;60484.78;5068024;28;20463;-70
2023/02/19 02:25:10;;;;;;;20.07;11.37;;;;;;;-145.18;100.00;60484.78;5072685;28;20499;-71
2023/02/19 02:27:59;;;;;;;20.03;10.17;;;;;;;-145.18;100.00;60484.78;5053307;28;20031;-70
2023/02/19 02:30:42;;;;;;;15.17;8.80;;;;;;;-145.18;100.00;60484.78;5072325;28;20433;-70
2023/02/19 02:33:07;;;;;;;15.43;8.60;;;;;;;-145.18;100.00;60484.78;5063924;28;20070;-70
2023/02/19 02:35:48;;;;;;;15.40;8.00;;;;;;;-145.18;100.00;60484.78;5065785;28;20376;-71
2023/02/19 02:38:17;;;;;;;17.83;9.37;;;;;;;-145.18;100.00;60484.78;5069163;28;20033;-71
2023/02/19 02:40:43;;;;;;;16.33;7.50;;;;;;;-145.18;100.00;60484.78;5071607;28;20383;-69
2023/02/19 02:43:10;;;;;;;19.47;10.53;;;;;;;-145.18;100.00;60484.78;5070232;28;20498;-70
2023/02/19 02:45:36;;;;;;;22.67;11.40;;;;;;;-145.18;100.00;60484.78;5067418;28;20144;-70
2023/02/19 02:48:10;;;;;;;26.63;12.30;;;;;;;-145.18;100.00;60484.78;5070262;28;20107;-70
2023/02/19 02:50:48;;;;;;;23.43;12.33;;;;;;;-145.18;100.00;60484.78;5071679;28;20028;-71
2023/02/19 02:56:24;;;;;;;15.53;8.33;;;;;;;-145.18;100.00;60484.78;5068400;28;20096;-70
2023/02/19 02:58:51;;;;;;;16.57;8.47;;;;;;;-145.18;100.00;60484.78;5070911;28;20523;-71
2023/02/19 03:04:34;;;;;;;11.90;5.67;;;;;;;-145.18;100.00;60484.78;5071359;28;20166;-70
2023/02/19 03:07:06;;;;;;;22.17;10.90;;;;;;;-145.18;100.00;60484.78;5070515;28;20074;-70
2023/02/19 03:09:39;;;;;;;26.43;12.10;;;;;;;-145.18;100.00;60484.78;5071706;28;20029;-70
2023/02/19 03:20:39;;;;;;;17.43;7.17;;;;;;;-145.18;100.00;60484.78;5071700;28;20036;-70
2023/02/19 03:23:08;;;;;;;19.40;7.00;;;;;;;-145.18;100.00;60484.78;5057334;28;20032;-70
2023/02/19 03:29:21;;;;;;;15.13;5.20;;;;;;;-145.18;100.00;60484.78;5069942;28;20420;-71
2023/02/19 03:31:16;;;;;;;25.20;6.40;;;;;;;-145.18;100.00;60484.78;5069102;28;20036;-70
2023/02/19 03:33:46;;;;;;;22.17;6.40;;;;;;;-145.18;100.00;60484.78;5069168;28;20034;-70
2023/02/19 03:36:14;;;;;;;22.73;6.90;;;;;;;-145.18;100.00;60484.78;5060111;28;20058;-70
2023/02/19 03:38:46;;;;;;;20.13;5.87;;;;;;;-145.18;100.00;60484.78;5071832;28;20409;-70
2023/02/19 03:41:19;;;;;;;17.90;4.80;;;;;;;-145.18;100.00;60484.78;5070514;28;20028;-70
2023/02/19 03:44:15;;;;;;;15.57;5.10;;;;;;;-145.18;100.00;60484.78;5070722;28;20024;-70
2023/02/19 03:46:50;;;;;;;15.23;4.60;;;;;;;-145.18;100.00;60484.78;5068883;28;20403;-71
2023/02/19 03:49:28;;;;;;;17.43;6.17;;;;;;;-145.18;100.00;60484.78;5071635;28;20495;-70
2023/02/19 03:52:06;;;;;;;20.90;8.20;;;;;;;-145.18;100.00;60484.78;5069678;28;20392;-70
2023/02/19 03:54:45;;;;;;;26.80;7.57;;;;;;;-145.18;100.00;60484.78;5070957;28;20032;-70
2023/02/19 03:57:30;;;;;;;19.10;6.57;;;;;;;-145.18;100.00;60484.78;5070331;28;20052;-70
2023/02/19 04:00:09;;;;;;;19.50;6.83;;;;;;;-145.18;100.00;60484.78;5071336;28;20504;-70
2023/02/19 04:02:45;;;;;;;10.57;4.00;;;;;;;-145.18;100.00;60484.78;5064930;28;20032;-71
2023/02/19 04:05:15;;;;;;;13.47;4.93;;;;;;;-145.18;100.00;60484.78;5053949;28;20028;-70
2023/02/19 04:07:49;;;;;;;14.17;4.93;;;;;;;-145.18;100.00;60484.78;5067891;28;20484;-71
2023/02/19 04:10:17;;;;;;;12.90;4.43;;;;;;;-145.18;100.00;60484.78;5071340;28;20032;-70
2023/02/19 04:12:47;;;;;;;13.97;4.87;;;;;;;-145.18;100.00;60484.78;5069199;28;20013;-70
2023/02/19 04:15:16;;;;;;;16.17;5.30;;;;;;;-145.18;100.00;60484.78;5070918;28;20088;-70
2023/02/19 04:18:05;;;;;;;15.47;5.57;;;;;;;-145.18;100.00;60484.78;5068884;28;20020;-70
2023/02/19 04:20:38;;;;;;;15.07;5.20;;;;;;;-145.18;100.00;60484.78;5051983;28;20476;-70
2023/02/19 04:23:04;;;;;;;17.23;5.00;;;;;;;-145.18;100.00;60484.78;5069801;28;20024;-70
2023/02/19 04:25:31;;;;;;;13.40;4.13;;;;;;;-145.18;100.00;60484.78;5071037;28;20033;-70
2023/02/19 04:27:57;;;;;;;15.80;4.77;;;;;;;-145.18;100.00;60484.78;5069308;28;20109;-70
2023/02/19 04:30:23;;;;;;;17.67;4.90;;;;;;;-145.18;100.00;60484.78;5070418;28;20025;-70
2023/02/19 04:32:48;;;;;;;21.60;6.83;;;;;;;-145.18;100.00;60484.78;5068826;28;20498;-70
2023/02/19 04:35:14;;;;;;;23.80;6.77;;;;;;;-145.18;100.00;60484.78;5070991;28;20059;-70
2023/02/19 04:37:39;;;;;;;25.13;7.73;;;;;;;-145.18;100.00;60484.78;5070071;28;20420;-70
2023/02/19 04:40:05;;;;;;;23.57;7.03;;;;;;;-145.18;100.00;60484.78;5074299;28;20048;-70
2023/02/19 04:42:30;;;;;;;27.00;7.80;;;;;;;-145.18;100.00;60484.78;5073090;28;20029;-70
2023/02/19 04:44:55;;;;;;;24.10;6.87;;;;;;;-145.18;100.00;60484.78;5074321;28;20027;-70
2023/02/19 04:47:21;;;;;;;26.17;7.27;;;;;;;-145.18;100.00;60484.78;5070950;28;20399;-70
2023/02/19 04:49:46;;;;;;;28.47;8.10;;;;;;;-145.18;100.00;60484.78;5055619;28;20051;-70
2023/02/19 04:52:12;;;;;;;33.63;8.37;;;;;;;-145.18;100.00;60484.78;5068128;28;20472;-70
2023/02/19 04:54:37;;;;;;;32.53;8.80;;;;;;;-145.18;100.00;60484.78;5073481;28;20025;-70
2023/02/19 04:57:02;;;;;;;35.20;10.57;;;;;;;-145.18;100.00;60484.78;5072252;28;20158;-70
2023/02/19 04:59:28;;;;;;;45.37;11.00;;;;;;;-145.18;100.00;60484.78;5073389;28;20056;-70
2023/02/19 05:01:54;;;;;;;43.30;10.63;;;;;;;-145.18;100.00;60484.78;5063555;28;20029;-70
2023/02/19 05:04:19;;;;;;;45.93;12.30;;;;;;;-145.18;100.00;60484.78;5073784;28;20067;-70
2023/02/19 05:06:45;;;;;;;47.30;11.73;;;;;;;-145.18;100.00;60484.78;5073339;28;20036;-71
2023/02/19 05:09:10;;;;;;;52.67;13.27;;;;;;;-145.18;100.00;60484.78;5073150;28;20479;-70
2023/02/19 05:11:36;;;;;;;54.67;14.57;;;;;;;-145.18;100.00;60484.78;5073609;28;20407;-70
2023/02/19 05:14:01;;;;;;;53.07;14.17;;;;;;;-145.18;100.00;60484.78;5060595;28;20025;-70
2023/02/19 05:16:26;;;;;;;54.47;14.83;;;;;;;-145.18;100.00;60484.78;5063062;28;20029;-70
2023/02/19 05:18:52;;;;;;;57.73;16.20;;;;;;;-145.18;100.00;60484.78;5072665;28;20109;-71
2023/02/19 05:21:18;;;;;;;56.90;14.80;;;;;;;-145.18;100.00;60484.78;5071452;28;20051;-70
2023/02/19 05:23:43;;;;;;;61.50;15.53;;;;;;;-145.18;100.00;60484.78;5073464;28;20064;-70
2023/02/19 05:26:16;;;;;;;57.30;15.60;;;;;;;-145.18;100.00;60484.78;5073595;28;20032;-70
2023/02/19 05:28:43;;;;;;;61.47;15.87;;;;;;;-145.18;100.00;60484.78;5054889;28;20032;-70
2023/02/19 05:31:09;;;;;;;58.63;16.10;;;;;;;-145.18;100.00;60484.78;5058768;28;20082;-70
2023/02/19 05:33:36;;;;;;;61.87;14.93;;;;;;;-145.18;100.00;60484.78;5071933;28;20025;-70
2023/02/19 05:36:06;;;;;;;35.67;9.63;;;;;;;-145.18;100.00;60484.78;5073632;28;20032;-70
2023/02/19 05:38:31;;;;;;;36.40;8.87;;;;;;;-145.18;100.00;60484.78;5072396;28;20062;-70
2023/02/19 05:41:07;;;;;;;28.83;7.43;;;;;;;-145.18;100.00;60484.78;5072733;28;20547;-70
2023/02/19 05:43:32;;;;;;;29.77;6.20;;;;;;;-145.18;100.00;60484.78;5072072;28;20036;-71
2023/02/19 05:45:58;;;;;;;28.17;5.90;;;;;;;-145.18;100.00;60484.78;5071796;28;20134;-70
2023/02/19 05:48:23;;;;;;;23.60;4.97;;;;;;;-145.18;100.00;60484.78;5072131;28;20041;-70
2023/02/19 05:50:48;;;;;;;21.17;4.07;;;;;;;-145.18;100.00;60484.78;5070794;28;20044;-70
2023/02/19 05:53:14;;;;;;;17.23;2.93;;;;;;;-145.18;100.00;60484.78;5072905;28;20052;-70
2023/02/19 05:55:39;;;;;;;9.10;1.70;;;;;;;-145.18;100.00;60484.78;5072501;28;20480;-70
2023/02/19 05:58:04;;;;;;;8.10;1.80;;;;;;;-145.18;100.00;60484.78;5071991;28;20020;-70
2023/02/19 06:00:31;;;;;;;6.63;2.10;;;;;;;-145.18;100.00;60484.78;5073128;28;20535;-70
2023/02/19 06:02:57;;;;;;;6.00;1.80;;;;;;;-145.18;100.00;60484.78;5067543;28;20078;-71
2023/02/19 06:05:22;;;;;;;9.10;2.50;;;;;;;-145.18;100.00;60484.78;5071110;28;20469;-70
2023/02/19 06:07:49;;;;;;;9.10;2.53;;;;;;;-145.18;100.00;60484.78;5067084;28;20044;-70
2023/02/19 06:10:14;;;;;;;11.40;3.20;;;;;;;-145.18;100.00;60484.78;5073053;28;20074;-70
2023/02/19 06:12:40;;;;;;;10.43;3.17;;;;;;;-145.18;100.00;60484.78;5071539;28;20509;-70
2023/02/19 06:15:06;;;;;;;10.93;3.20;;;;;;;-145.18;100.00;60484.78;5072298;28;20480;-70
2023/02/19 06:17:32;;;;;;;12.67;4.50;;;;;;;-145.18;100.00;60484.78;5070581;28;20032;-70
2023/02/19 06:19:58;;;;;;;15.90;5.07;;;;;;;-145.18;100.00;60484.78;5072560;28;20032;-70
2023/02/19 06:22:24;;;;;;;16.03;5.37;;;;;;;-145.18;100.00;60484.78;5071409;28;20035;-70
2023/02/19 06:24:49;;;;;;;17.57;5.43;;;;;;;-145.18;100.00;60484.78;5070768;28;20035;-70
2023/02/19 06:27:14;;;;;;;19.80;5.90;;;;;;;-145.18;100.00;60484.78;5072609;28;20162;-70
2023/02/19 06:29:40;;;;;;;18.17;6.27;;;;;;;-145.18;100.00;60484.78;5071784;28;20024;-70
2023/02/19 06:32:06;;;;;;;23.37;7.73;;;;;;;-145.18;100.00;60484.78;5070702;28;20082;-70
2023/02/19 06:34:32;;;;;;;22.47;7.83;;;;;;;-145.18;100.00;60484.78;5071767;28;20375;-71
2023/02/19 06:36:58;;;;;;;21.00;8.17;;;;;;;-145.18;100.00;60484.78;5072284;28;20428;-70
2023/02/19 06:39:24;;;;;;;22.07;7.10;;;;;;;-145.18;100.00;60484.78;5072203;28;20028;-70
2023/02/19 06:41:49;;;;;;;24.50;7.80;;;;;;;-145.18;100.00;60484.78;5070703;28;20115;-70
2023/02/19 06:44:15;;;;;;;21.90;7.80;;;;;;;-145.18;100.00;60484.78;5071300;28;20550;-70
2023/02/19 06:46:41;;;;;;;22.13;7.03;;;;;;;-145.18;100.00;60484.78;5069320;28;20028;-70
2023/02/19 06:49:06;;;;;;;23.60;7.57;;;;;;;-145.18;100.00;60484.78;5071969;28;20020;-70
2023/02/19 06:51:31;;;;;;;23.40;7.10;;;;;;;-145.18;100.00;60484.78;5070623;28;20020;-70
2023/02/19 06:54:01;;;;;;;20.33;7.30;;;;;;;-145.18;100.00;60484.78;5072240;28;20020;-70
2023/02/19 06:56:31;;;;;;;25.27;7.63;;;;;;;-145.18;100.00;60484.78;5069332;28;20494;-70
2023/02/19 06:58:58;;;;;;;23.60;7.73;;;;;;;-145.18;100.00;60484.78;5071314;28;20365;-70
2023/02/19 07:01:25;;;;;;;20.70;6.90;;;;;;;-145.18;100.00;60484.78;5069367;28;20036;-70
2023/02/19 07:03:51;;;;;;;20.03;6.97;;;;;;;-145.18;100.00;60484.78;5071927;28;20069;-70
2023/02/19 07:06:18;;;;;;;20.00;6.93;;;;;;;-145.18;100.00;60484.78;5071377;28;20036;-70
2023/02/19 07:08:44;;;;;;;19.27;6.90;;;;;;;-145.18;100.00;60484.78;5071176;28;20028;-70
2023/02/19 07:11:09;;;;;;;18.90;6.37;;;;;;;-145.18;100.00;60484.78;5071075;28;20032;-70
2023/02/19 07:13:35;;;;;;;18.83;6.23;;;;;;;-145.18;100.00;60484.78;5070813;28;20017;-70
2023/02/19 07:16:04;;;;;;;15.57;5.40;;;;;;;-145.18;100.00;60484.78;5065139;28;20043;-71
2023/02/19 07:18:30;;;;;;;14.87;5.63;;;;;;;-145.18;100.00;60484.78;5071692;28;20502;-70
2023/02/19 07:21:03;;;;;;;13.97;4.23;;;;;;;-145.18;100.00;60484.78;5063922;28;20472;-70
2023/02/19 07:23:30;;;;;;;17.37;4.47;;;;;;;-145.18;100.00;60484.78;5071506;28;20032;-71
2023/02/19 07:25:55;;;;;;;14.07;4.27;;;;;;;-145.18;100.00;60484.78;5071504;28;20028;-71
2023/02/19 07:28:21;;;;;;;12.57;3.83;;;;;;;-145.18;100.00;60484.78;5071846;28;20361;-70
2023/02/19 07:30:46;;;;;;;13.73;4.77;;;;;;;-145.18;100.00;60484.78;5068099;28;20032;-71
2023/02/19 07:33:11;;;;;;;11.17;3.80;;;;;;;-145.18;100.00;60484.78;5068405;28;20489;-70
2023/02/19 07:35:37;;;;;;;14.83;4.90;;;;;;;-145.18;100.00;60484.78;5069373;28;20032;-70
2023/02/19 07:38:02;;;;;;;13.80;4.27;;;;;;;-145.18;100.00;60484.78;5071438;28;20384;-70
2023/02/19 07:40:28;;;;;;;18.57;5.10;;;;;;;-145.18;100.00;60484.78;5070655;28;20029;-70
2023/02/19 07:42:53;;;;;;;10.93;4.50;;;;;;;-145.18;100.00;60484.78;5070368;28;20025;-70
2023/02/19 07:45:18;;;;;;;13.40;5.40;;;;;;;-145.18;100.00;60484.78;5070590;28;20021;-70
2023/02/19 07:47:44;;;;;;;16.37;5.37;;;;;;;-145.18;100.00;60484.78;5070476;28;20032;-71
2023/02/19 07:50:09;;;;;;;13.60;4.60;;;;;;;-145.18;100.00;60484.78;5071390;28;20100;-70
2023/02/19 07:52:34;;;;;;;13.13;5.10;;;;;;;-145.18;100.00;60484.78;5068497;28;20086;-70
2023/02/19 07:55:00;;;;;;;13.73;5.87;;;;;;;-145.18;100.00;60484.78;5068830;28;20056;-71
2023/02/19 07:57:27;;;;;;;12.47;5.30;;;;;;;-145.18;100.00;60484.78;5071184;28;20036;-71
2023/02/19 07:59:52;;;;;;;11.73;5.70;;;;;;;-145.18;100.00;60484.78;5070283;28;20056;-70
2023/02/19 08:05:05;;;;;;;13.17;6.00;;;;;;;-145.18;100.00;60484.78;5069851;28;20039;-71
2023/02/19 08:07:34;;;;;;;16.40;5.83;;;;;;;-145.18;100.00;60484.78;5065098;28;20399;-70
2023/02/19 08:15:28;;;;;;;13.80;7.27;;;;;;;-145.18;100.00;60484.78;5074090;28;20081;-71
2023/02/19 08:17:53;;;;;;;16.17;6.90;;;;;;;-145.18;100.00;60484.78;5073302;28;20426;-71
2023/02/19 08:20:19;;;;;;;13.60;6.63;;;;;;;-145.18;100.00;60484.78;5074813;28;20024;-71
2023/02/19 08:22:44;;;;;;;14.57;6.80;;;;;;;-145.18;100.00;60484.78;5071922;28;20033;-71
2023/02/19 08:25:10;;;;;;;12.90;6.27;;;;;;;-145.18;100.00;60484.78;5073849;28;20055;-71
2023/02/19 08:27:35;;;;;;;13.03;6.43;;;;;;;-145.18;100.00;60484.78;5074585;28;20154;-71
2023/02/19 08:30:00;;;;;;;13.87;6.10;;;;;;;-145.18;100.00;60484.78;5073451;28;20036;-71
2023/02/19 08:32:26;;;;;;;11.67;6.00;;;;;;;-145.18;100.00;60484.78;5073453;28;20024;-71
2023/02/19 08:34:51;;;;;;;10.60;5.67;;;;;;;-145.18;100.00;60484.78;5074400;28;20035;-71
2023/02/19 08:37:16;;;;;;;10.60;4.90;;;;;;;-145.18;100.00;60484.78;5074479;28;20090;-71
2023/02/19 08:39:42;;;;;;;12.03;5.17;;;;;;;-145.18;100.00;60484.78;5074310;28;20100;-71
2023/02/19 08:42:07;;;;;;;12.57;4.50;;;;;;;-145.18;100.00;60484.78;5071820;28;20031;-71
2023/02/19 08:44:32;;;;;;;10.80;4.50;;;;;;;-145.18;100.00;60484.78;5071965;28;20047;-71
2023/02/19 08:46:58;;;;;;;9.73;4.37;;;;;;;-145.18;100.00;60484.78;5069634;28;20020;-71
2023/02/19 08:49:27;;;;;;;9.93;4.53;;;;;;;-145.18;100.00;60484.78;5074560;28;20494;-71
2023/02/19 08:51:52;;;;;;;9.40;4.13;;;;;;;-145.18;100.00;60484.78;5067417;28;20026;-71
2023/02/19 08:54:17;;;;;;;13.07;4.80;;;;;;;-145.18;100.00;60484.78;5073592;28;20099;-71
2023/02/19 08:56:43;;;;;;;11.60;4.20;;;;;;;-145.18;100.00;60484.78;5072714;28;20498;-71
2023/02/19 08:59:08;;;;;;;10.87;4.83;;;;;;;-145.18;100.00;60484.78;5074083;28;20021;-71
2023/02/19 09:01:34;;;;;;;14.87;7.57;;;;;;;-145.18;100.00;60484.78;5071345;28;20032;-71
2023/02/19 09:03:59;;;;;;;11.87;7.80;;;;;;;-145.18;100.00;60484.78;5072182;28;20036;-71
2023/02/19 09:06:25;;;;;;;14.23;7.00;;;;;;;-145.18;100.00;60484.78;5071845;28;20020;-71
2023/02/19 09:08:50;;;;;;;12.80;7.33;;;;;;;-145.18;100.00;60484.78;5068485;28;20017;-71
2023/02/19 09:11:15;;;;;;;12.70;8.00;;;;;;;-145.18;100.00;60484.78;5074130;28;20024;-71
2023/02/19 09:13:42;;;;;;;14.20;8.53;;;;;;;-145.18;100.00;60484.78;5073728;28;20507;-71
2023/02/19 09:16:08;;;;;;;16.63;9.40;;;;;;;-145.18;100.00;60484.78;5071149;28;20059;-71
2023/02/19 09:18:34;;;;;;;15.90;9.80;;;;;;;-145.18;100.00;60484.78;5073794;28;20484;-71
2023/02/19 09:21:03;;;;;;;14.90;10.10;;;;;;;-145.18;100.00;60484.78;5071782;28;20399;-71
2023/02/19 09:23:29;;;;;;;16.90;10.10;;;;;;;-145.18;100.00;60484.78;5073853;28;20093;-71
2023/02/19 09:25:59;;;;;;;16.33;9.93;;;;;;;-145.18;100.00;60484.78;5073526;28;20103;-71
2023/02/19 09:28:26;;;;;;;15.50;10.23;;;;;;;-145.18;100.00;60484.78;5071001;28;20392;-71
2023/02/19 09:30:51;;;;;;;17.07;10.57;;;;;;;-145.18;100.00;60484.78;5071687;28;20024;-71
2023/02/19 09:33:17;;;;;;;16.37;9.77;;;;;;;-145.18;100.00;60484.78;5069473;28;20503;-71
2023/02/19 09:35:42;;;;;;;11.90;7.03;;;;;;;-145.18;100.00;60484.78;5072693;28;20511;-71
2023/02/19 09:38:09;;;;;;;11.87;8.40;;;;;;;-145.18;100.00;60484.78;5072124;28;20380;-71
2023/02/19 09:40:37;;;;;;;12.33;8.40;;;;;;;-145.18;100.00;60484.78;5071724;28;20024;-71
2023/02/19 09:43:10;;;;;;;12.37;8.20;;;;;;;-145.18;100.00;60484.78;5072308;28;20111;-71
2023/02/19 09:45:36;;;;;;;12.00;7.37;;;;;;;-145.18;100.00;60484.78;5070402;28;20124;-71
2023/02/19 09:48:05;;;;;;;13.60;8.50;;;;;;;-145.18;100.00;60484.78;5071240;28;20029;-71
2023/02/19 09:50:38;;;;;;;14.87;8.40;;;;;;;-145.18;100.00;60484.78;5073496;28;20492;-71
2023/02/19 09:53:16;;;;;;;13.80;8.60;;;;;;;-145.18;100.00;60484.78;5073259;28;20082;-71
2023/02/19 09:55:43;;;;;;;12.77;7.80;;;;;;;-145.18;100.00;60484.78;5070708;28;20085;-71
2023/02/19 09:58:19;;;;;;;12.57;8.17;;;;;;;-145.18;100.00;60484.78;5072950;28;20024;-71
2023/02/19 10:00:47;;;;;;;12.40;7.63;;;;;;;-145.18;100.00;60484.78;5071506;28;20492;-71
2023/02/19 10:03:21;;;;;;;12.23;7.60;;;;;;;-145.18;100.00;60484.78;5057844;28;20029;-71
2023/02/19 10:05:47;;;;;;;12.03;7.00;;;;;;;-145.18;100.00;60484.78;5053190;28;20090;-71
2023/02/19 10:08:18;;;;;;;13.00;6.33;;;;;;;-145.18;100.00;60484.78;5057332;28;20418;-71
2023/02/19 10:10:44;;;;;;;8.57;5.75;;;;;;;-145.18;100.00;60484.78;5073085;28;20025;-71
2023/02/19 10:13:26;;;;;;;11.17;6.27;;;;;;;-145.18;100.00;60484.78;5069997;28;20472;-71
2023/02/19 10:15:55;;;;;;;10.57;5.53;;;;;;;-145.18;100.00;60484.78;5068754;28;20054;-71
2023/02/19 10:18:27;;;;;;;9.07;6.03;;;;;;;-145.18;100.00;60484.78;5070188;28;20468;-71
2023/02/19 10:20:52;;;;;;;8.98;5.47;;;;;;;-145.18;100.00;60484.78;5070097;28;20024;-71
2023/02/19 10:23:19;;;;;;;8.27;4.70;;;;;;;-145.18;100.00;60484.78;5070513;28;20033;-71
2023/02/19 10:25:55;;;;;;;10.03;5.50;;;;;;;-145.18;100.00;60484.78;5070156;28;20039;-71
2023/02/19 10:28:25;;;;;;;9.70;4.20;;;;;;;-145.18;100.00;60484.78;5070914;28;20082;-71
2023/02/19 10:30:53;;;;;;;7.90;4.00;;;;;;;-145.18;100.00;60484.78;5067320;28;20503;-71
2023/02/19 10:33:19;;;;;;;7.07;3.40;;;;;;;-145.18;100.00;60484.78;5061409;28;20020;-71
2023/02/19 10:36:06;;;;;;;7.60;3.70;;;;;;;-145.18;100.00;60484.78;5070777;28;20464;-71
2023/02/19 10:38:34;;;;;;;6.47;2.80;;;;;;;-145.18;100.00;60484.78;5070613;28;20020;-71
2023/02/19 10:41:05;;;;;;;6.03;2.47;;;;;;;-145.18;100.00;60484.78;5064371;28;20029;-71
2023/02/19 10:43:35;;;;;;;8.53;3.00;;;;;;;-145.18;100.00;60484.78;5066147;28;20032;-71
2023/02/19 10:46:05;;;;;;;6.60;3.00;;;;;;;-145.18;100.00;60484.78;5064004;28;20152;-71
2023/02/19 10:48:35;;;;;;;6.40;2.63;;;;;;;-145.18;100.00;60484.78;5063588;28;20028;-71
2023/02/19 10:51:05;;;;;;;6.67;3.27;;;;;;;-145.18;100.00;60484.78;5070724;28;20024;-71
2023/02/19 10:53:46;;;;;;;14.90;7.97;;;;;;;-145.18;100.00;60484.78;5072232;28;20050;-71
2023/02/19 10:56:13;;;;;;;14.40;8.63;;;;;;;-145.18;100.00;60484.78;5062324;28;20109;-71
2023/02/19 10:58:41;;;;;;;14.37;8.10;;;;;;;-145.18;100.00;60484.78;5069547;28;20033;-71
2023/02/19 11:01:15;;;;;;;9.77;5.50;;;;;;;-145.18;100.00;60484.78;5065917;28;20032;-71
2023/02/19 11:03:41;;;;;;;10.60;5.40;;;;;;;-145.18;100.00;60484.78;5070372;28;20024;-71
2023/02/19 11:06:10;;;;;;;9.73;4.70;;;;;;;-145.18;100.00;60484.78;5069059;28;20074;-71
2023/02/19 11:08:53;;;;;;;13.00;6.23;;;;;;;-145.18;100.00;60484.78;5065899;28;20537;-71
2023/02/19 11:11:33;;;;;;;8.73;3.90;;;;;;;-145.18;100.00;60484.78;5068123;28;20024;-71
2023/02/19 11:14:03;;;;;;;12.00;3.93;;;;;;;-145.18;100.00;60484.78;5065206;28;20027;-71
2023/02/19 11:16:42;;;;;;;11.67;4.57;;;;;;;-145.18;100.00;60484.78;5068524;28;20028;-71
2023/02/19 11:19:33;;;;;;;7.60;4.63;;;;;;;-145.18;100.00;60484.78;5067850;28;20032;-71
2023/02/19 11:22:00;;;;;;;9.45;5.95;;;;;;;-145.18;100.00;60484.78;5069500;28;20074;-71
2023/02/19 11:24:25;;;;;;;12.50;7.57;;;;;;;-145.18;100.00;60484.78;5070415;28;20398;-71
2023/02/19 11:26:50;;;;;;;14.87;8.33;;;;;;;-145.18;100.00;60484.78;5071734;28;20032;-71
2023/02/19 11:29:21;;;;;;;15.43;9.47;;;;;;;-145.18;100.00;60484.78;5058992;28;20525;-71
2023/02/19 11:31:46;;;;;;;15.97;8.63;;;;;;;-145.18;100.00;60484.78;5054317;28;20036;-71
2023/02/19 11:34:23;;;;;;;14.77;9.07;;;;;;;-145.18;100.00;60484.78;5054063;28;20372;-71